Time;durP1;ratioP1;P1;durP2;ratioP2;P2;SDS_P1;SDS_P2;PMS_P1;PMS_P2;Temp;Humidity;BMP_temperature;BMP_pressure;BME280_temperature;BME280_humidity;BME280_pressure;Samples;Min_cycle;Max_cycle;Signal;HPM_P1;HPM_P2
2022/03/30 00:01:08;;;;;;;24.13;10.68;;;;;;;6.86;74.71;100698.97;5052740;28;20039;-67
2022/03/30 00:03:34;;;;;;;26.92;12.88;;;;;;;6.81;74.97;100699.50;5052722;28;20028;-67
2022/03/30 00:05:59;;;;;;;26.85;11.55;;;;;;;6.75;75.38;100689.59;5052725;28;20032;-67
2022/03/30 00:08:25;;;;;;;24.27;10.48;;;;;;;6.72;75.23;100696.09;5052649;28;20032;-67
2022/03/30 00:10:50;;;;;;;24.67;10.45;;;;;;;6.66;75.57;100695.97;5052408;28;20033;-67
2022/03/30 00:13:16;;;;;;;30.58;13.25;;;;;;;6.61;75.83;100701.78;5051159;28;20043;-67
2022/03/30 00:15:42;;;;;;;29.60;11.40;;;;;;;6.52;76.04;100701.03;5052160;28;20049;-67
2022/03/30 00:18:07;;;;;;;29.65;10.90;;;;;;;6.45;75.80;100702.72;5052263;28;20121;-67
2022/03/30 00:20:33;;;;;;;24.98;12.35;;;;;;;6.40;76.02;100706.88;5052370;28;20126;-67
2022/03/30 00:22:58;;;;;;;27.13;11.68;;;;;;;6.28;76.61;100701.94;5052419;28;20033;-67
2022/03/30 00:25:24;;;;;;;26.30;11.05;;;;;;;6.20;76.67;100690.56;5052085;28;20033;-67
2022/03/30 00:27:49;;;;;;;32.92;13.07;;;;;;;6.15;77.28;100694.53;5052178;28;20045;-68
2022/03/30 00:30:17;;;;;;;24.52;10.75;;;;;;;6.12;77.11;100700.19;5051920;28;20033;-67
2022/03/30 00:32:42;;;;;;;27.45;12.10;;;;;;;6.07;77.75;100691.09;5052109;28;20400;-67
2022/03/30 00:35:09;;;;;;;28.35;11.27;;;;;;;6.05;77.00;100693.94;5052173;28;20028;-67
2022/03/30 00:37:35;;;;;;;25.83;11.55;;;;;;;6.00;77.62;100690.13;5051914;28;20084;-67
2022/03/30 00:40:03;;;;;;;24.20;11.68;;;;;;;5.93;77.70;100697.91;5051853;28;20115;-67
2022/03/30 00:42:29;;;;;;;31.45;13.77;;;;;;;5.77;77.82;100676.78;5051980;28;20090;-67
2022/03/30 00:44:55;;;;;;;32.75;14.43;;;;;;;5.79;78.01;100682.72;5051945;28;20029;-67
2022/03/30 00:47:23;;;;;;;26.70;11.05;;;;;;;5.73;78.66;100689.53;5051960;28;20035;-67
2022/03/30 00:49:49;;;;;;;27.85;11.55;;;;;;;5.73;78.43;100686.88;5051879;28;20507;-67
2022/03/30 00:52:15;;;;;;;28.13;13.85;;;;;;;5.68;78.26;100682.06;5050349;28;20387;-67
2022/03/30 00:54:42;;;;;;;26.92;12.85;;;;;;;5.65;78.74;100686.91;5083741;28;20033;-67
2022/03/30 00:57:10;;;;;;;26.63;11.98;;;;;;;5.60;78.46;100687.38;5051647;28;20115;-67
2022/03/30 00:59:36;;;;;;;25.40;11.18;;;;;;;5.56;78.89;100674.69;5051667;28;20033;-67
2022/03/30 01:02:03;;;;;;;29.42;11.65;;;;;;;5.44;79.13;100671.56;5051475;28;20065;-67
2022/03/30 01:04:29;;;;;;;25.98;10.93;;;;;;;5.41;79.71;100669.25;5051646;28;20029;-67
2022/03/30 01:06:54;;;;;;;27.10;11.13;;;;;;;5.37;79.01;100679.34;5051248;28;20033;-67
2022/03/30 01:09:20;;;;;;;24.55;11.18;;;;;;;5.29;80.07;100674.03;5051307;28;20095;-67
2022/03/30 01:11:47;;;;;;;30.45;13.93;;;;;;;5.21;80.29;100672.25;5051442;28;20051;-67
2022/03/30 01:14:13;;;;;;;26.60;10.70;;;;;;;5.16;80.62;100668.44;5051264;28;20024;-67
2022/03/30 01:16:40;;;;;;;28.10;12.23;;;;;;;5.17;80.00;100670.09;5051172;28;20488;-67
2022/03/30 01:19:07;;;;;;;27.25;11.48;;;;;;;5.11;80.22;100666.31;5051186;28;20492;-67
2022/03/30 01:21:37;;;;;;;26.38;10.98;;;;;;;5.06;80.50;100671.25;5051069;28;20037;-67
2022/03/30 01:24:03;;;;;;;29.15;12.63;;;;;;;5.02;80.39;100662.00;5051169;28;20021;-67
2022/03/30 01:26:28;;;;;;;30.33;12.93;;;;;;;4.93;81.12;100660.34;5051128;28;20124;-67
2022/03/30 01:28:55;;;;;;;21.70;10.40;;;;;;;4.88;81.19;100658.19;5051159;28;20120;-67
2022/03/30 01:34:05;;;;;;;23.80;11.98;;;;;;;4.71;81.43;100641.50;5050874;28;20036;-67
2022/03/30 01:36:31;;;;;;;26.73;12.32;;;;;;;4.72;81.74;100650.25;5050622;28;20055;-67
2022/03/30 01:38:56;;;;;;;27.33;11.40;;;;;;;4.68;82.10;100651.56;5050962;28;20036;-67
2022/03/30 01:41:22;;;;;;;23.35;10.95;;;;;;;4.63;82.23;100652.03;5050894;28;20040;-67
2022/03/30 01:43:47;;;;;;;25.13;9.65;;;;;;;4.58;82.14;100651.72;5050886;28;20040;-67
2022/03/30 01:46:12;;;;;;;28.58;12.48;;;;;;;4.55;82.25;100654.69;5050774;28;20540;-67
2022/03/30 01:48:38;;;;;;;26.85;11.60;;;;;;;4.46;82.56;100653.84;5050716;28;20029;-67
2022/03/30 01:51:03;;;;;;;27.38;11.93;;;;;;;4.46;83.40;100647.75;5050574;28;20028;-67
2022/03/30 01:53:29;;;;;;;26.58;12.00;;;;;;;4.42;83.38;100649.03;5050571;28;20522;-67
2022/03/30 01:55:54;;;;;;;27.33;13.15;;;;;;;4.38;83.21;100649.38;5050499;28;20032;-67
2022/03/30 01:58:20;;;;;;;28.42;12.95;;;;;;;4.35;83.06;100643.59;5050457;28;20035;-67
2022/03/30 02:00:46;;;;;;;31.58;13.35;;;;;;;4.31;83.41;100639.59;5050333;28;20045;-67
2022/03/30 02:03:12;;;;;;;24.85;11.15;;;;;;;4.30;83.18;100637.97;5050405;28;20120;-67
2022/03/30 02:05:40;;;;;;;40.72;14.40;;;;;;;4.27;83.95;100641.75;5050365;28;20075;-67
2022/03/30 02:08:06;;;;;;;27.30;12.05;;;;;;;4.26;83.73;100637.44;5049594;28;20091;-67
2022/03/30 02:10:31;;;;;;;21.52;10.65;;;;;;;4.24;83.66;100631.50;5050595;28;20041;-67
2022/03/30 02:13:00;;;;;;;32.38;13.75;;;;;;;4.22;84.12;100628.22;5050121;28;20720;-67
2022/03/30 02:15:25;;;;;;;26.80;12.45;;;;;;;4.21;84.48;100623.06;5049905;28;20373;-67
2022/03/30 02:17:51;;;;;;;28.00;13.30;;;;;;;4.20;84.21;100621.44;5050009;28;20102;-67
2022/03/30 02:20:16;;;;;;;30.23;14.25;;;;;;;4.23;83.78;100631.66;5050111;28;20032;-67
2022/03/30 02:22:42;;;;;;;27.35;13.77;;;;;;;4.21;83.66;100615.97;5050115;28;20810;-67
2022/03/30 02:25:08;;;;;;;28.25;12.88;;;;;;;4.17;83.85;100618.13;5050167;28;20031;-67
2022/03/30 02:27:35;;;;;;;33.45;13.57;;;;;;;4.13;84.42;100611.50;5049595;28;20072;-67
2022/03/30 02:30:01;;;;;;;26.95;11.65;;;;;;;4.11;84.40;100605.59;5049887;28;20395;-67
2022/03/30 02:32:26;;;;;;;35.55;13.13;;;;;;;4.08;84.32;100592.69;5049653;28;20037;-67
2022/03/30 02:34:52;;;;;;;29.17;12.15;;;;;;;4.03;84.80;100594.16;5049911;28;20061;-67
2022/03/30 02:37:18;;;;;;;27.52;12.23;;;;;;;4.03;84.39;100594.16;5049612;28;20215;-67
2022/03/30 02:39:44;;;;;;;26.85;12.35;;;;;;;4.03;84.20;100591.50;5049798;28;20049;-67
2022/03/30 02:42:10;;;;;;;32.28;12.68;;;;;;;3.98;84.72;100581.44;5049850;28;20063;-67
2022/03/30 02:44:36;;;;;;;29.42;11.27;;;;;;;4.06;84.89;100588.56;5048230;28;20033;-67
2022/03/30 02:47:02;;;;;;;29.98;12.60;;;;;;;4.00;85.10;100584.75;5049610;28;20029;-67
2022/03/30 02:49:28;;;;;;;31.35;14.30;;;;;;;4.02;85.17;100590.69;5049680;28;20033;-67
2022/03/30 02:51:53;;;;;;;34.15;14.85;;;;;;;4.01;85.68;100585.56;5049551;28;20033;-67
2022/03/30 02:54:19;;;;;;;29.30;11.60;;;;;;;3.97;85.53;100581.63;5049550;28;20376;-67
2022/03/30 02:56:45;;;;;;;25.17;11.13;;;;;;;3.95;85.38;100577.31;5064737;28;20040;-67
2022/03/30 02:59:11;;;;;;;31.48;12.43;;;;;;;3.94;85.46;100577.47;5049471;28;20029;-67
2022/03/30 03:01:37;;;;;;;27.00;12.23;;;;;;;3.95;85.50;100579.13;5049301;28;20044;-67
2022/03/30 03:04:02;;;;;;;26.83;11.25;;;;;;;3.96;85.38;100575.53;5049194;28;20411;-67
2022/03/30 03:06:28;;;;;;;26.67;13.55;;;;;;;3.96;85.86;100572.88;5049275;28;20066;-67
2022/03/30 03:08:53;;;;;;;26.95;11.45;;;;;;;3.97;85.29;100573.69;5049251;28;20029;-67
2022/03/30 03:11:18;;;;;;;28.27;12.27;;;;;;;3.90;85.93;100569.06;5049208;28;20028;-67
2022/03/30 03:13:44;;;;;;;32.58;13.18;;;;;;;3.93;85.53;100571.38;5047989;28;20029;-67
2022/03/30 03:16:12;;;;;;;29.38;14.00;;;;;;;3.90;85.77;100576.13;5049255;28;20029;-67
2022/03/30 03:18:37;;;;;;;27.52;12.68;;;;;;;3.91;85.96;100576.00;5049192;28;20071;-67
2022/03/30 03:21:03;;;;;;;30.73;12.25;;;;;;;3.90;85.91;100571.72;5047860;28;20068;-67
2022/03/30 03:23:28;;;;;;;32.05;13.93;;;;;;;3.87;85.63;100563.28;5049331;28;20127;-67
2022/03/30 03:25:54;;;;;;;33.58;15.07;;;;;;;3.88;86.58;100570.22;5049124;28;20535;-67
2022/03/30 03:28:19;;;;;;;29.55;13.57;;;;;;;3.84;86.36;100563.59;5049088;28;20131;-67
2022/03/30 03:30:45;;;;;;;34.58;14.00;;;;;;;3.88;86.24;100562.31;5047770;28;20040;-67
2022/03/30 03:33:11;;;;;;;31.98;11.93;;;;;;;3.86;86.40;100561.63;5049109;28;20562;-67
2022/03/30 03:35:36;;;;;;;31.42;11.95;;;;;;;3.85;86.86;100565.25;5049093;28;20025;-67
2022/03/30 03:38:03;;;;;;;31.05;12.95;;;;;;;3.83;86.01;100557.50;5048922;28;20095;-67
2022/03/30 03:40:32;;;;;;;27.02;12.63;;;;;;;3.82;86.61;100557.66;5049055;28;20021;-67
2022/03/30 03:42:59;;;;;;;32.40;11.52;;;;;;;3.79;86.94;100547.41;5048886;28;20036;-67
2022/03/30 03:45:25;;;;;;;30.05;13.20;;;;;;;3.75;86.53;100541.66;5048779;28;20024;-67
2022/03/30 03:47:51;;;;;;;27.10;10.77;;;;;;;3.80;86.69;100552.56;5048942;28;20132;-67
2022/03/30 03:50:17;;;;;;;31.30;12.68;;;;;;;3.69;87.10;100542.28;5048921;28;20036;-67
2022/03/30 03:52:42;;;;;;;34.45;14.85;;;;;;;3.72;86.86;100548.06;5048692;28;20025;-67
2022/03/30 03:55:09;;;;;;;28.98;14.05;;;;;;;3.67;87.10;100545.09;5048702;28;20119;-67
2022/03/30 03:57:35;;;;;;;29.10;13.68;;;;;;;3.62;86.75;100539.47;5048969;28;20052;-67
2022/03/30 04:00:01;;;;;;;22.40;11.02;;;;;;;3.57;86.98;100533.00;5048748;28;20468;-67
2022/03/30 04:02:26;;;;;;;26.25;11.85;;;;;;;3.60;87.39;100546.69;5048821;28;20380;-67
2022/03/30 04:04:51;;;;;;;28.92;12.73;;;;;;;3.58;87.40;100545.19;5048783;28;20121;-67
2022/03/30 04:07:17;;;;;;;28.63;11.60;;;;;;;3.51;87.40;100545.00;5048850;28;20071;-67
2022/03/30 04:09:42;;;;;;;46.08;15.18;;;;;;;3.46;87.10;100539.41;5048879;28;20032;-67
2022/03/30 04:12:08;;;;;;;25.08;10.65;;;;;;;3.40;88.11;100545.28;5048491;28;20075;-67
2022/03/30 04:14:33;;;;;;;28.50;12.32;;;;;;;3.34;87.91;100538.84;5048325;28;20068;-67
2022/03/30 04:16:59;;;;;;;34.15;12.13;;;;;;;3.29;88.04;100531.38;5048543;28;20079;-67
2022/03/30 04:19:25;;;;;;;31.27;12.60;;;;;;;3.26;87.81;100538.78;5048624;28;20408;-67
2022/03/30 04:21:51;;;;;;;30.35;14.40;;;;;;;3.22;87.69;100534.81;5048735;28;20025;-67
2022/03/30 04:24:16;;;;;;;32.58;13.80;;;;;;;3.16;88.25;100533.63;5048646;28;20114;-67
2022/03/30 04:26:41;;;;;;;29.27;13.40;;;;;;;3.13;88.34;100528.69;5048619;28;20056;-67
2022/03/30 04:29:07;;;;;;;29.48;14.32;;;;;;;3.10;88.27;100539.53;5047231;28;20037;-67
2022/03/30 04:31:32;;;;;;;30.02;13.35;;;;;;;3.11;87.67;100535.09;5050265;28;20099;-67
2022/03/30 04:33:58;;;;;;;33.45;13.27;;;;;;;3.05;88.14;100534.72;5051994;28;21038;-67
2022/03/30 04:36:24;;;;;;;28.05;11.48;;;;;;;3.01;87.96;100538.66;5051711;28;20057;-67
2022/03/30 04:38:49;;;;;;;29.77;13.05;;;;;;;3.02;88.09;100536.84;5051868;28;20036;-67
2022/03/30 04:41:15;;;;;;;30.50;14.68;;;;;;;2.97;88.64;100529.41;5052105;28;20029;-67
2022/03/30 04:43:40;;;;;;;25.58;11.82;;;;;;;2.94;89.03;100535.00;5051973;28;20135;-67
2022/03/30 04:46:08;;;;;;;31.27;13.07;;;;;;;2.92;88.90;100526.41;5051926;28;20037;-67
2022/03/30 04:48:33;;;;;;;29.70;12.10;;;;;;;2.90;89.10;100536.25;5051744;28;20357;-67
2022/03/30 04:50:59;;;;;;;28.73;12.60;;;;;;;2.84;89.56;100529.00;5051833;28;20032;-67
2022/03/30 04:53:24;;;;;;;30.40;13.07;;;;;;;2.83;89.44;100535.25;5050334;28;20844;-67
2022/03/30 04:55:49;;;;;;;31.83;14.18;;;;;;;2.80;89.71;100538.16;5051569;28;20528;-66
2022/03/30 04:58:15;;;;;;;27.55;12.48;;;;;;;2.78;89.19;100538.34;5050098;28;20127;-67
2022/03/30 05:00:41;;;;;;;32.15;14.27;;;;;;;2.73;89.38;100535.34;5051615;28;20495;-67
2022/03/30 05:03:07;;;;;;;28.85;11.82;;;;;;;2.69;89.41;100531.34;5051688;28;20025;-67
2022/03/30 05:05:32;;;;;;;30.42;12.18;;;;;;;2.70;89.88;100546.19;5051476;28;20043;-67
2022/03/30 05:07:58;;;;;;;35.28;15.32;;;;;;;2.65;90.03;100537.91;5051595;28;20112;-67
2022/03/30 05:10:23;;;;;;;26.38;10.88;;;;;;;2.66;90.02;100546.63;5051521;28;20064;-67
2022/03/30 05:12:48;;;;;;;28.48;12.80;;;;;;;2.62;89.71;100541.69;5051258;28;20032;-67
2022/03/30 05:15:14;;;;;;;28.80;11.73;;;;;;;2.65;90.10;100545.81;5049923;28;20036;-67
2022/03/30 05:17:44;;;;;;;31.10;11.75;;;;;;;2.63;90.14;100545.13;5051237;28;20039;-67
2022/03/30 05:20:11;;;;;;;37.80;15.13;;;;;;;2.57;90.75;100533.41;5051034;28;21046;-67
2022/03/30 05:22:36;;;;;;;33.22;13.60;;;;;;;2.60;90.08;100533.09;5051002;28;20029;-67
2022/03/30 05:25:02;;;;;;;31.42;15.35;;;;;;;2.58;90.72;100534.22;5050988;28;20033;-67
2022/03/30 05:27:28;;;;;;;27.67;13.77;;;;;;;2.57;90.32;100536.03;5050842;28;20029;-67
2022/03/30 05:29:53;;;;;;;28.80;12.60;;;;;;;2.54;90.66;100528.44;5051019;28;20114;-67
2022/03/30 05:32:19;;;;;;;35.42;15.07;;;;;;;2.50;91.35;100515.75;5050645;28;20044;-67
2022/03/30 05:34:45;;;;;;;35.33;13.32;;;;;;;2.53;90.78;100524.16;5049644;28;20035;-67
2022/03/30 05:37:10;;;;;;;27.38;12.68;;;;;;;2.49;91.10;100519.34;5050699;28;20045;-67
2022/03/30 05:39:39;;;;;;;30.30;14.82;;;;;;;2.52;91.24;100526.94;5050747;28;20043;-67
2022/03/30 05:42:05;;;;;;;28.83;14.27;;;;;;;2.50;91.86;100521.00;5049573;28;20094;-67
2022/03/30 05:44:31;;;;;;;47.65;12.82;;;;;;;2.48;91.26;100518.50;5032818;28;20033;-67
2022/03/30 05:46:57;;;;;;;27.70;13.05;;;;;;;2.51;90.86;100522.66;5050627;28;20025;-67
2022/03/30 05:49:24;;;;;;;27.83;12.30;;;;;;;2.52;91.24;100516.44;5050485;28;20171;-67
2022/03/30 05:51:50;;;;;;;35.95;14.07;;;;;;;2.54;91.37;100523.19;5050815;28;20090;-67
2022/03/30 05:54:15;;;;;;;29.73;12.63;;;;;;;2.54;90.96;100515.28;5050587;28;20532;-67
2022/03/30 05:59:24;;;;;;;31.85;13.95;;;;;;;2.61;90.86;100521.56;5050672;28;20116;-67
2022/03/30 06:01:50;;;;;;;32.45;13.32;;;;;;;2.64;90.81;100523.09;5050394;28;20037;-67
2022/03/30 06:04:15;;;;;;;34.40;14.38;;;;;;;2.68;91.00;100528.88;5050266;28;20064;-67
2022/03/30 06:06:40;;;;;;;32.92;13.45;;;;;;;2.75;90.85;100524.63;5050235;28;20040;-67
2022/03/30 06:09:09;;;;;;;26.77;13.02;;;;;;;2.80;90.64;100519.72;5050165;28;20037;-67
2022/03/30 06:11:34;;;;;;;30.75;14.70;;;;;;;2.88;91.21;100526.88;5050139;28;20052;-67
2022/03/30 06:14:00;;;;;;;35.53;14.32;;;;;;;2.97;91.16;100525.94;5050009;28;20062;-67
2022/03/30 06:16:27;;;;;;;33.10;14.55;;;;;;;3.22;89.75;100534.81;5050176;28;20067;-67
2022/03/30 06:18:54;;;;;;;31.50;14.32;;;;;;;3.32;89.02;100540.78;5050166;28;20424;-67
2022/03/30 06:21:20;;;;;;;27.15;11.93;;;;;;;3.26;89.32;100523.81;5050069;28;20049;-67
2022/03/30 06:23:45;;;;;;;35.67;15.27;;;;;;;3.30;89.58;100529.56;5049311;28;20087;-67
2022/03/30 06:26:11;;;;;;;35.33;14.60;;;;;;;3.60;89.27;100528.25;5049867;28;20033;-67
2022/03/30 06:28:36;;;;;;;33.47;15.98;;;;;;;3.72;88.04;100523.47;5049882;28;20033;-67
2022/03/30 06:31:02;;;;;;;32.17;14.00;;;;;;;3.73;87.69;100527.78;5049827;28;20094;-67
2022/03/30 06:33:27;;;;;;;30.90;13.50;;;;;;;3.70;88.00;100533.38;5049750;28;20025;-67
2022/03/30 06:35:52;;;;;;;31.95;14.00;;;;;;;3.76;88.04;100527.47;5049811;28;20463;-67
2022/03/30 06:38:19;;;;;;;33.53;13.02;;;;;;;3.82;87.44;100524.19;5049430;28;20063;-67
2022/03/30 06:40:46;;;;;;;28.35;13.88;;;;;;;3.95;87.14;100529.81;5049017;28;20566;-67
2022/03/30 06:43:12;;;;;;;30.38;14.25;;;;;;;3.97;87.48;100523.56;5049558;28;20037;-67
2022/03/30 06:45:37;;;;;;;30.75;13.82;;;;;;;4.05;86.95;100518.31;5049287;28;20400;-67
2022/03/30 06:48:03;;;;;;;36.50;12.77;;;;;;;4.18;86.85;100518.66;5049419;28;20079;-67
2022/03/30 06:50:32;;;;;;;36.20;16.17;;;;;;;4.29;86.11;100514.88;5049499;28;20476;-67
2022/03/30 06:52:57;;;;;;;33.70;14.20;;;;;;;4.38;85.85;100530.56;5048874;28;20061;-67
2022/03/30 06:55:23;;;;;;;28.80;12.00;;;;;;;4.41;85.87;100528.59;5049354;28;20456;-68
2022/03/30 06:57:48;;;;;;;32.25;13.00;;;;;;;4.44;85.59;100529.06;5049282;28;20686;-68
2022/03/30 07:00:14;;;;;;;26.23;12.38;;;;;;;4.47;85.43;100536.66;5047796;28;20041;-68
2022/03/30 07:02:40;;;;;;;28.65;13.23;;;;;;;4.50;85.82;100528.41;5049344;28;20032;-68
2022/03/30 07:05:05;;;;;;;25.73;11.85;;;;;;;4.55;85.24;100527.91;5049295;28;20071;-68
2022/03/30 07:10:15;;;;;;;26.17;13.35;;;;;;;4.67;85.59;100528.41;5049522;28;20047;-68
2022/03/30 07:12:45;;;;;;;27.58;12.98;;;;;;;4.71;84.14;100524.44;5049158;28;20029;-68
2022/03/30 07:15:11;;;;;;;27.85;11.55;;;;;;;4.77;84.55;100529.06;5048852;28;20044;-69
2022/03/30 07:17:54;;;;;;;33.97;13.50;;;;;;;4.82;84.03;100517.00;5049084;28;20062;-67
2022/03/30 07:20:22;;;;;;;27.98;12.75;;;;;;;4.96;83.53;100523.41;5048841;28;20120;-67
2022/03/30 07:22:50;;;;;;;31.63;13.05;;;;;;;5.11;84.68;100518.28;5046085;28;20092;-67
2022/03/30 07:25:18;;;;;;;32.95;12.50;;;;;;;5.23;83.09;100518.72;5044117;28;20467;-67
2022/03/30 07:27:51;;;;;;;29.70;12.65;;;;;;;5.31;82.82;100521.34;5044346;28;20033;-68
2022/03/30 07:30:18;;;;;;;28.02;12.73;;;;;;;5.36;81.87;100511.06;5044736;28;20020;-68
2022/03/30 07:32:45;;;;;;;32.90;13.77;;;;;;;5.39;81.01;100510.72;5045058;28;20130;-70
2022/03/30 07:35:13;;;;;;;30.15;15.10;;;;;;;5.51;81.29;100519.13;5044514;28;20035;-69
2022/03/30 07:37:39;;;;;;;29.88;14.13;;;;;;;5.63;82.36;100509.81;5043176;28;20070;-68
2022/03/30 07:40:07;;;;;;;29.70;13.45;;;;;;;5.85;80.70;100521.44;5046539;28;20112;-67
2022/03/30 07:42:32;;;;;;;28.23;12.55;;;;;;;5.96;79.75;100514.13;5048744;28;20037;-69
2022/03/30 07:44:58;;;;;;;23.73;10.40;;;;;;;6.03;78.77;100515.91;5049067;28;20436;-69
2022/03/30 07:47:25;;;;;;;30.55;12.75;;;;;;;6.12;79.13;100514.84;5049115;28;20102;-67
2022/03/30 07:49:51;;;;;;;32.03;12.45;;;;;;;6.19;79.08;100511.50;5048916;28;20033;-67
2022/03/30 07:52:16;;;;;;;29.42;13.27;;;;;;;6.44;77.35;100518.25;5048338;28;20040;-67
2022/03/30 07:54:42;;;;;;;25.75;11.07;;;;;;;6.48;76.52;100522.22;5048629;28;20111;-69
2022/03/30 07:57:08;;;;;;;26.55;11.13;;;;;;;6.51;77.28;100519.19;5048558;28;20040;-69
2022/03/30 07:59:33;;;;;;;27.10;11.30;;;;;;;6.53;76.04;100519.84;5048557;28;20033;-68
2022/03/30 08:01:59;;;;;;;26.05;9.23;;;;;;;6.49;76.29;100529.13;5048740;28;20033;-69
2022/03/30 08:04:25;;;;;;;24.60;10.07;;;;;;;6.54;75.64;100523.31;5048814;28;20033;-69
2022/03/30 08:06:51;;;;;;;22.92;10.95;;;;;;;6.61;75.30;100513.66;5052245;28;20029;-69
2022/03/30 08:09:17;;;;;;;24.65;10.40;;;;;;;6.75;75.48;100514.69;5052691;28;20403;-69
2022/03/30 08:11:42;;;;;;;26.08;11.02;;;;;;;6.82;74.68;100518.28;5052186;28;20035;-70
2022/03/30 08:14:09;;;;;;;26.02;11.23;;;;;;;7.01;74.77;100525.69;5052001;28;20032;-69
2022/03/30 08:16:34;;;;;;;23.15;10.07;;;;;;;7.43;72.51;100518.94;5052316;28;20043;-69
2022/03/30 08:19:00;;;;;;;22.80;10.05;;;;;;;7.62;71.17;100512.25;5052397;28;20033;-69
2022/03/30 08:24:09;;;;;;;24.65;9.48;;;;;;;7.80;70.03;100514.47;5052541;28;20094;-69
2022/03/30 08:26:37;;;;;;;28.05;11.00;;;;;;;7.63;71.45;100516.53;5052173;28;20667;-69
2022/03/30 08:29:02;;;;;;;23.23;9.68;;;;;;;7.59;71.25;100528.53;5052372;28;20090;-69
2022/03/30 08:31:28;;;;;;;22.40;9.18;;;;;;;7.94;71.28;100531.41;5052080;28;20036;-69
2022/03/30 08:33:53;;;;;;;20.92;10.43;;;;;;;8.22;69.60;100526.16;5052094;28;20493;-69
2022/03/30 08:36:20;;;;;;;22.05;10.40;;;;;;;8.34;69.28;100521.19;5051916;28;20029;-69
2022/03/30 08:38:45;;;;;;;24.38;10.80;;;;;;;8.10;70.19;100520.53;5051884;28;20049;-70
2022/03/30 08:41:11;;;;;;;25.63;11.18;;;;;;;7.92;69.87;100527.28;5051945;28;20499;-69
2022/03/30 08:43:39;;;;;;;27.48;9.00;;;;;;;7.86;71.10;100516.41;5052028;28;20033;-69
2022/03/30 08:46:04;;;;;;;22.33;10.27;;;;;;;7.92;70.83;100506.06;5052033;28;20507;-70
2022/03/30 08:48:30;;;;;;;24.35;9.88;;;;;;;7.94;70.70;100493.38;5051938;28;20033;-69
2022/03/30 08:50:58;;;;;;;24.83;11.15;;;;;;;8.02;71.08;100506.56;5051834;28;20048;-69
2022/03/30 08:53:26;;;;;;;20.70;10.65;;;;;;;8.02;70.66;100503.91;5051670;28;20071;-69
2022/03/30 08:55:52;;;;;;;22.42;10.05;;;;;;;8.02;70.34;100506.56;5051665;28;20028;-69
2022/03/30 08:58:17;;;;;;;25.33;9.52;;;;;;;8.12;71.26;100505.25;5051449;28;20047;-69
2022/03/30 09:00:43;;;;;;;24.38;10.60;;;;;;;8.18;69.93;100506.31;5051903;28;20127;-69
2022/03/30 09:03:08;;;;;;;24.67;11.57;;;;;;;8.21;70.17;100499.81;5051704;28;20392;-69
2022/03/30 09:05:37;;;;;;;22.63;9.45;;;;;;;8.30;70.15;100506.63;5051354;28;20571;-69
2022/03/30 09:08:25;;;;;;;23.17;10.27;;;;;;;8.35;69.06;100506.88;5051178;28;20029;-69
2022/03/30 09:10:52;;;;;;;28.73;10.00;;;;;;;8.30;70.19;100502.13;5051073;28;20491;-69
2022/03/30 09:13:18;;;;;;;20.98;10.18;;;;;;;8.35;69.37;100496.25;5051229;28;20041;-69
2022/03/30 09:15:46;;;;;;;26.83;11.27;;;;;;;8.38;67.84;100500.34;5051207;28;20025;-70
2022/03/30 09:18:14;;;;;;;21.27;10.93;;;;;;;8.29;69.39;100497.84;5051290;28;20047;-69
2022/03/30 09:20:42;;;;;;;25.27;10.18;;;;;;;8.37;68.96;100502.19;5051073;28;20032;-69
2022/03/30 09:23:09;;;;;;;23.95;9.93;;;;;;;8.43;67.82;100497.97;5051009;28;20477;-69
2022/03/30 09:25:35;;;;;;;21.15;10.60;;;;;;;8.45;67.94;100495.97;5051126;28;20037;-70
2022/03/30 09:28:02;;;;;;;23.20;9.52;;;;;;;8.55;67.50;100481.31;5051023;28;20033;-69
2022/03/30 09:30:28;;;;;;;21.13;9.23;;;;;;;8.69;67.17;100482.25;5051199;28;20067;-70
2022/03/30 09:32:57;;;;;;;24.15;10.05;;;;;;;8.84;66.70;100476.84;5051073;28;20397;-69
2022/03/30 09:35:28;;;;;;;22.30;9.55;;;;;;;8.87;67.37;100478.28;5051047;28;20384;-69
2022/03/30 09:38:09;;;;;;;24.70;11.37;;;;;;;8.99;67.37;100482.88;5050763;28;20044;-70
2022/03/30 09:40:37;;;;;;;20.90;8.90;;;;;;;9.02;65.90;100471.00;5050436;28;20311;-70
2022/03/30 09:43:10;;;;;;;22.80;9.07;;;;;;;8.91;65.79;100476.88;5050820;28;20025;-70
2022/03/30 09:45:35;;;;;;;23.80;8.82;;;;;;;8.82;66.78;100462.91;5050716;28;20029;-70
2022/03/30 09:48:20;;;;;;;20.85;9.32;;;;;;;8.92;66.14;100471.34;5050633;28;20032;-70
2022/03/30 09:50:50;;;;;;;25.33;9.85;;;;;;;8.95;65.76;100467.50;5050570;28;20032;-70
2022/03/30 09:53:18;;;;;;;22.42;9.30;;;;;;;8.88;66.79;100446.19;5050148;28;20028;-70
2022/03/30 09:55:58;;;;;;;24.92;10.40;;;;;;;8.97;65.85;100463.63;5050544;28;20456;-70
2022/03/30 09:58:25;;;;;;;22.33;10.20;;;;;;;9.02;65.30;100463.03;5050280;28;20044;-70
2022/03/30 10:01:07;;;;;;;22.65;10.10;;;;;;;9.16;67.28;100461.25;5050515;28;20025;-70
2022/03/30 10:03:42;;;;;;;;;;;;;;;9.46;67.38;100458.31;5050916;28;20072;-70
2022/03/30 10:06:11;;;;;;;21.38;9.98;;;;;;;9.66;64.59;100451.22;5050395;28;20498;-70
2022/03/30 10:08:39;;;;;;;19.52;8.80;;;;;;;9.82;63.92;100453.53;5050297;28;20029;-70
2022/03/30 10:11:05;;;;;;;20.48;9.20;;;;;;;9.87;62.46;100456.41;5050408;28;20491;-70
2022/03/30 10:13:31;;;;;;;20.30;8.85;;;;;;;9.79;62.57;100453.91;5050263;28;20135;-70
2022/03/30 10:15:58;;;;;;;20.65;8.77;;;;;;;9.69;63.04;100450.00;5050141;28;20060;-70
2022/03/30 10:18:24;;;;;;;22.65;9.82;;;;;;;9.51;63.34;100451.41;5049887;28;20080;-70
2022/03/30 10:21:01;;;;;;;20.77;8.13;;;;;;;9.46;62.85;100448.50;5046794;28;20028;-72
2022/03/30 10:23:41;;;;;;;22.70;10.30;;;;;;;9.66;64.09;100451.22;5045641;28;20439;-70
2022/03/30 10:26:12;;;;;;;23.08;9.68;;;;;;;9.71;63.07;100442.66;5049744;28;20111;-69
2022/03/30 10:28:40;;;;;;;24.40;11.40;;;;;;;9.76;63.80;100438.34;5049820;28;20067;-69
2022/03/30 10:31:06;;;;;;;30.92;11.60;;;;;;;9.87;62.29;100439.59;5049836;28;20099;-69
2022/03/30 10:33:40;;;;;;;21.30;9.27;;;;;;;9.85;62.31;100439.81;5049683;28;20048;-69
2022/03/30 10:36:25;;;;;;;21.20;9.40;;;;;;;9.84;62.53;100440.00;5049697;28;20031;-69
2022/03/30 10:39:24;;;;;;;22.30;9.20;;;;;;;9.77;63.17;100445.34;5049831;28;20048;-69
2022/03/30 10:41:50;;;;;;;22.98;10.13;;;;;;;9.55;62.57;100433.19;5049695;28;20476;-69
2022/03/30 10:44:41;;;;;;;22.77;9.88;;;;;;;9.62;63.76;100428.69;5049593;28;20036;-69
2022/03/30 10:47:18;;;;;;;23.80;9.07;;;;;;;9.74;62.27;100427.06;5049581;28;20074;-69
2022/03/30 10:49:46;;;;;;;21.77;10.20;;;;;;;9.86;62.25;100420.13;5049529;28;20099;-69
2022/03/30 10:52:43;;;;;;;25.73;10.95;;;;;;;9.83;62.36;100419.72;5049566;28;20037;-69
2022/03/30 10:55:11;;;;;;;23.05;9.77;;;;;;;9.90;61.83;100414.41;5047967;28;20124;-69
2022/03/30 10:57:48;;;;;;;22.33;10.05;;;;;;;10.04;62.20;100414.22;5049181;28;20037;-69
2022/03/30 11:00:20;;;;;;;22.17;9.45;;;;;;;10.11;62.31;100406.22;5049584;28;20024;-71
2022/03/30 11:02:46;;;;;;;25.27;11.35;;;;;;;10.28;61.26;100407.50;5049556;28;20025;-72
2022/03/30 11:05:14;;;;;;;22.40;10.25;;;;;;;10.44;61.26;100418.75;5049632;28;20119;-69
2022/03/30 11:07:40;;;;;;;21.20;9.30;;;;;;;10.41;59.99;100405.84;5049308;28;20035;-70
2022/03/30 11:10:19;;;;;;;18.83;8.63;;;;;;;10.29;60.75;100410.97;5049270;28;20116;-70
2022/03/30 11:13:02;;;;;;;22.02;7.88;;;;;;;10.08;60.98;100394.13;5049114;28;20106;-70
2022/03/30 11:15:28;;;;;;;19.20;7.60;;;;;;;10.15;60.22;100396.00;5049250;28;20028;-70
2022/03/30 11:17:56;;;;;;;16.90;7.72;;;;;;;10.20;59.15;100389.00;5049114;28;20025;-69
2022/03/30 11:20:23;;;;;;;26.98;9.55;;;;;;;10.19;59.83;100381.22;5048926;28;20083;-70
2022/03/30 11:22:49;;;;;;;20.20;8.50;;;;;;;10.33;59.42;100384.75;5048826;28;20412;-70
2022/03/30 11:25:23;;;;;;;19.80;9.07;;;;;;;10.36;58.42;100374.47;5049015;28;20033;-69
2022/03/30 11:27:58;;;;;;;19.52;8.00;;;;;;;10.33;58.78;100379.41;5048857;28;20128;-69
2022/03/30 11:30:28;;;;;;;19.15;7.60;;;;;;;10.37;59.10;100370.78;5049045;28;20033;-70